Air Resources Laboratory banner image
Air Resources Laboratory web site National Oceanic and Atmospheric Administration (NOAA)

ma metar


KACK 111753Z 07004KT 5SM -RA BR OVC004 21/21 A2989 RMK AO2 PRESFR SLP122 P0012
 60016 T02110206 10228 20211 58012=
KAQW 111752Z AUTO 01005KT 10SM FEW050 26/15 A2990 RMK AO2 SLP121 T02610150
 10261 20178 56012=
KBAF 111753Z 26006KT 10SM CLR 29/13 A2987 RMK AO2 SLP111 T02890133 10294 20189
 58013=
KBED 111751Z VRB05KT 10SM CLR 27/16 A2986 RMK AO2 SLP122 T02670156 10267 20206
 58014=
KBOS 111754Z 12009KT 10SM FEW027 FEW055 SCT140 BKN200 OVC250 24/19 A2988 RMK
 AO2 SLP116 60000 T02440194 10244 20200 58013=
KBVY 111753Z 13008KT 10SM CLR 25/19 A2987 RMK AO2 SLP110 60000 T02500189 10250
 20206 58012=
KCEF 111756Z 35004KT 10SM SCT055 SCT180 BKN230 27/13 A2984 RMK AO2A SLP109
 T02710131 10273 20193 57014=
KCQX 111752Z AUTO 14003KT 5SM RA BR SCT050 BKN100 OVC120 20/19 A2991 RMK AO2
 SLP129 P0004 60005 T02000189 10228 20200 58008=
KEWB 111753Z 13004KT 7SM BKN006 OVC012 22/21 A2988 RMK AO2 RAE32 CIG 005V010
 SLP116 P0003 60010 T02220211 10256 20217 58011=
KFMH 111745Z 14007KT 3SM -RA BKN004 OVC007 21/21 A2990=
KHYA 111756Z 13004KT 5SM RA BR OVC008 22/20 A2988 RMK AO2 SLP120 P0010 60017
 T02170200 10244 20217 58010=
KLWM 111754Z 21005KT 10SM BKN041 BKN050 27/17 A2988 RMK AO2 SLP117 T02670167
 10272 20211 58014=
KMVY 111753Z 11007KT 4SM RA BR BKN004 BKN060 OVC110 21/21 A2988 RMK AO2 SLP117
 P0015 60032 T02110206 10233 20206 58015=
KORE 111752Z AUTO 32008KT 280V350 10SM CLR 27/14 A2989 RMK AO2 SLP120 T02720139
 10278 20183 58012=
KORH 111754Z 27005KT 10SM FEW047 26/13 A2990 RMK AO2 SLP121 T02560128 10256
 20189 58013=
KOWD 111753Z 14006KT 10SM FEW027 SCT036 BKN047 28/19 A2986 RMK AO2 SLP112 60001
 T02780189 10278 20222 58014=
KPSF 111754Z AUTO VRB04KT 10SM BKN045 26/13 A2991 RMK AO2 SLP103 T02560133
 10261 20172 58010=
KPYM 111752Z AUTO VRB03KT 10SM OVC006 22/21 A2989 RMK AO2 RAE47 SLP121 P0003
 60009 T02220211 10256 20217 58010=
KTAN 111752Z AUTO 15005KT 10SM BKN007 OVC013 23/21 A2988 RMK AO2 RAE10 CIG
 005V010 SLP117 P0000 60005 T02280206 10250 20222 58010=